sensor_id;sensor_type;location;lat;lon;timestamp;temperature;humidity
64143;DHT22;50437;51.970;5.904;2023-10-19T00:00:38;10.10;99.90
64143;DHT22;50437;51.970;5.904;2023-10-19T00:03:08;10.20;99.90
64143;DHT22;50437;51.970;5.904;2023-10-19T00:05:37;10.20;99.90
64143;DHT22;50437;51.970;5.904;2023-10-19T00:08:04;10.20;99.90
64143;DHT22;50437;51.970;5.904;2023-10-19T00:10:54;10.20;99.90
64143;DHT22;50437;51.970;5.904;2023-10-19T00:13:36;10.30;99.90
64143;DHT22;50437;51.970;5.904;2023-10-19T00:16:07;10.30;99.90
64143;DHT22;50437;51.970;5.904;2023-10-19T00:18:38;10.40;99.90
64143;DHT22;50437;51.970;5.904;2023-10-19T00:21:08;10.40;99.90
64143;DHT22;50437;51.970;5.904;2023-10-19T00:23:50;10.40;99.90
64143;DHT22;50437;51.970;5.904;2023-10-19T00:26:17;10.40;99.90
64143;DHT22;50437;51.970;5.904;2023-10-19T00:29:05;10.40;99.90
64143;DHT22;50437;51.970;5.904;2023-10-19T00:31:51;10.40;99.90
64143;DHT22;50437;51.970;5.904;2023-10-19T00:34:19;10.40;99.90
64143;DHT22;50437;51.970;5.904;2023-10-19T00:36:47;10.40;99.90
64143;DHT22;50437;51.970;5.904;2023-10-19T00:39:14;10.60;99.90
64143;DHT22;50437;51.970;5.904;2023-10-19T00:41:42;10.60;99.90
64143;DHT22;50437;51.970;5.904;2023-10-19T00:44:10;10.60;99.90
64143;DHT22;50437;51.970;5.904;2023-10-19T00:46:42;10.60;99.90
64143;DHT22;50437;51.970;5.904;2023-10-19T00:49:09;10.60;99.90
64143;DHT22;50437;51.970;5.904;2023-10-19T00:51:36;10.60;99.90
64143;DHT22;50437;51.970;5.904;2023-10-19T00:56:41;10.60;99.90
64143;DHT22;50437;51.970;5.904;2023-10-19T00:59:11;10.70;99.90
64143;DHT22;50437;51.970;5.904;2023-10-19T01:01:41;10.60;99.90
64143;DHT22;50437;51.970;5.904;2023-10-19T01:04:15;10.70;99.90
64143;DHT22;50437;51.970;5.904;2023-10-19T01:06:42;10.70;99.90
64143;DHT22;50437;51.970;5.904;2023-10-19T01:09:25;10.80;99.90
64143;DHT22;50437;51.970;5.904;2023-10-19T01:11:53;10.80;99.90
64143;DHT22;50437;51.970;5.904;2023-10-19T01:14:20;10.90;99.90
64143;DHT22;50437;51.970;5.904;2023-10-19T01:16:47;10.80;99.90
64143;DHT22;50437;51.970;5.904;2023-10-19T01:19:16;10.80;99.90
64143;DHT22;50437;51.970;5.904;2023-10-19T01:21:46;10.80;99.90
64143;DHT22;50437;51.970;5.904;2023-10-19T01:24:17;10.80;99.90
64143;DHT22;50437;51.970;5.904;2023-10-19T01:26:46;10.80;99.90
64143;DHT22;50437;51.970;5.904;2023-10-19T01:29:13;10.80;99.90
64143;DHT22;50437;51.970;5.904;2023-10-19T01:31:40;10.80;99.90
64143;DHT22;50437;51.970;5.904;2023-10-19T01:34:21;10.90;99.90
64143;DHT22;50437;51.970;5.904;2023-10-19T01:36:47;10.90;99.90
64143;DHT22;50437;51.970;5.904;2023-10-19T01:39:16;10.90;99.90
64143;DHT22;50437;51.970;5.904;2023-10-19T01:41:45;10.90;99.90
64143;DHT22;50437;51.970;5.904;2023-10-19T01:44:11;10.90;99.90
64143;DHT22;50437;51.970;5.904;2023-10-19T01:46:41;10.90;99.90
64143;DHT22;50437;51.970;5.904;2023-10-19T01:49:09;11.00;99.90
64143;DHT22;50437;51.970;5.904;2023-10-19T01:51:35;11.00;99.90
64143;DHT22;50437;51.970;5.904;2023-10-19T01:54:07;11.00;99.90
64143;DHT22;50437;51.970;5.904;2023-10-19T01:56:34;11.10;99.90
64143;DHT22;50437;51.970;5.904;2023-10-19T01:59:02;11.00;99.90
64143;DHT22;50437;51.970;5.904;2023-10-19T02:01:30;11.10;99.90
64143;DHT22;50437;51.970;5.904;2023-10-19T02:04:01;11.10;99.90
64143;DHT22;50437;51.970;5.904;2023-10-19T02:06:28;11.10;99.90
64143;DHT22;50437;51.970;5.904;2023-10-19T02:09:05;11.20;99.90
64143;DHT22;50437;51.970;5.904;2023-10-19T02:11:48;11.20;99.90
64143;DHT22;50437;51.970;5.904;2023-10-19T02:14:16;11.30;99.90
64143;DHT22;50437;51.970;5.904;2023-10-19T02:16:45;11.30;99.90
64143;DHT22;50437;51.970;5.904;2023-10-19T02:19:13;11.20;99.90
64143;DHT22;50437;51.970;5.904;2023-10-19T02:21:40;11.30;99.90
64143;DHT22;50437;51.970;5.904;2023-10-19T02:24:10;11.30;99.90
64143;DHT22;50437;51.970;5.904;2023-10-19T02:26:43;11.40;99.90
64143;DHT22;50437;51.970;5.904;2023-10-19T02:29:10;11.50;99.90
64143;DHT22;50437;51.970;5.904;2023-10-19T02:31:36;11.40;99.90
64143;DHT22;50437;51.970;5.904;2023-10-19T02:34:09;11.50;99.90
64143;DHT22;50437;51.970;5.904;2023-10-19T02:36:36;11.50;99.90
64143;DHT22;50437;51.970;5.904;2023-10-19T02:39:04;11.50;99.90
64143;DHT22;50437;51.970;5.904;2023-10-19T02:41:38;11.50;99.90
64143;DHT22;50437;51.970;5.904;2023-10-19T02:44:07;11.50;99.90
64143;DHT22;50437;51.970;5.904;2023-10-19T02:46:37;11.50;99.90
64143;DHT22;50437;51.970;5.904;2023-10-19T02:49:08;11.60;99.90
64143;DHT22;50437;51.970;5.904;2023-10-19T02:51:38;11.60;99.90
64143;DHT22;50437;51.970;5.904;2023-10-19T02:54:05;11.60;99.90
64143;DHT22;50437;51.970;5.904;2023-10-19T02:56:34;11.60;99.90
64143;DHT22;50437;51.970;5.904;2023-10-19T02:59:05;11.60;99.90
64143;DHT22;50437;51.970;5.904;2023-10-19T03:01:31;11.70;99.90
64143;DHT22;50437;51.970;5.904;2023-10-19T03:04:00;11.70;99.90
64143;DHT22;50437;51.970;5.904;2023-10-19T03:06:27;11.70;99.90
64143;DHT22;50437;51.970;5.904;2023-10-19T03:08:58;11.70;99.90
64143;DHT22;50437;51.970;5.904;2023-10-19T03:11:30;11.70;99.90
64143;DHT22;50437;51.970;5.904;2023-10-19T03:13:59;11.70;99.90
64143;DHT22;50437;51.970;5.904;2023-10-19T03:16:25;11.70;99.90
64143;DHT22;50437;51.970;5.904;2023-10-19T03:18:56;11.70;99.90
64143;DHT22;50437;51.970;5.904;2023-10-19T03:21:22;11.60;99.90
64143;DHT22;50437;51.970;5.904;2023-10-19T03:23:53;11.70;99.90
64143;DHT22;50437;51.970;5.904;2023-10-19T03:26:19;11.70;99.90
64143;DHT22;50437;51.970;5.904;2023-10-19T03:29:02;11.70;99.90
64143;DHT22;50437;51.970;5.904;2023-10-19T03:31:38;11.70;99.90
64143;DHT22;50437;51.970;5.904;2023-10-19T03:34:12;11.80;99.90
64143;DHT22;50437;51.970;5.904;2023-10-19T03:36:44;12.00;99.90
64143;DHT22;50437;51.970;5.904;2023-10-19T03:39:10;12.10;99.90
64143;DHT22;50437;51.970;5.904;2023-10-19T03:41:42;12.40;99.90
64143;DHT22;50437;51.970;5.904;2023-10-19T03:44:09;12.50;99.90
64143;DHT22;50437;51.970;5.904;2023-10-19T03:46:50;12.50;99.90
64143;DHT22;50437;51.970;5.904;2023-10-19T03:49:23;12.70;99.90
64143;DHT22;50437;51.970;5.904;2023-10-19T03:51:56;12.60;99.90
64143;DHT22;50437;51.970;5.904;2023-10-19T03:54:28;12.70;99.90
64143;DHT22;50437;51.970;5.904;2023-10-19T03:56:57;12.70;99.90
64143;DHT22;50437;51.970;5.904;2023-10-19T03:59:27;12.60;99.90
64143;DHT22;50437;51.970;5.904;2023-10-19T04:01:59;12.70;99.90
64143;DHT22;50437;51.970;5.904;2023-10-19T04:04:26;12.70;99.90
64143;DHT22;50437;51.970;5.904;2023-10-19T04:06:55;12.70;99.90
64143;DHT22;50437;51.970;5.904;2023-10-19T04:09:24;12.70;99.90
64143;DHT22;50437;51.970;5.904;2023-10-19T04:11:57;12.60;99.90
64143;DHT22;50437;51.970;5.904;2023-10-19T04:14:23;12.60;99.90
64143;DHT22;50437;51.970;5.904;2023-10-19T04:16:49;12.60;99.90
64143;DHT22;50437;51.970;5.904;2023-10-19T04:19:15;12.60;99.90
64143;DHT22;50437;51.970;5.904;2023-10-19T04:21:44;12.60;99.90
64143;DHT22;50437;51.970;5.904;2023-10-19T04:24:15;12.60;99.90
64143;DHT22;50437;51.970;5.904;2023-10-19T04:26:43;12.60;99.90
64143;DHT22;50437;51.970;5.904;2023-10-19T04:29:09;12.60;99.90
64143;DHT22;50437;51.970;5.904;2023-10-19T04:31:36;12.60;99.90
64143;DHT22;50437;51.970;5.904;2023-10-19T04:34:20;12.60;99.90
64143;DHT22;50437;51.970;5.904;2023-10-19T04:36:47;12.70;99.90
64143;DHT22;50437;51.970;5.904;2023-10-19T04:39:13;12.70;99.90
64143;DHT22;50437;51.970;5.904;2023-10-19T04:41:40;12.60;99.90
64143;DHT22;50437;51.970;5.904;2023-10-19T04:44:10;12.60;99.90
64143;DHT22;50437;51.970;5.904;2023-10-19T04:46:36;12.50;99.90
64143;DHT22;50437;51.970;5.904;2023-10-19T04:49:02;12.50;99.90
64143;DHT22;50437;51.970;5.904;2023-10-19T04:51:31;12.50;99.90
64143;DHT22;50437;51.970;5.904;2023-10-19T04:53:59;12.50;99.90
64143;DHT22;50437;51.970;5.904;2023-10-19T04:56:28;12.50;99.90
64143;DHT22;50437;51.970;5.904;2023-10-19T04:58:54;12.40;99.90
64143;DHT22;50437;51.970;5.904;2023-10-19T05:01:26;12.40;99.90
64143;DHT22;50437;51.970;5.904;2023-10-19T05:03:55;12.40;99.90
64143;DHT22;50437;51.970;5.904;2023-10-19T05:06:21;12.40;99.90
64143;DHT22;50437;51.970;5.904;2023-10-19T05:08:48;12.30;99.90
64143;DHT22;50437;51.970;5.904;2023-10-19T05:11:14;12.20;99.90
64143;DHT22;50437;51.970;5.904;2023-10-19T05:13:40;12.10;99.90
64143;DHT22;50437;51.970;5.904;2023-10-19T05:16:06;11.90;99.90
64143;DHT22;50437;51.970;5.904;2023-10-19T05:18:33;11.90;99.90
64143;DHT22;50437;51.970;5.904;2023-10-19T05:21:00;11.80;99.90
64143;DHT22;50437;51.970;5.904;2023-10-19T05:23:27;11.80;99.90
64143;DHT22;50437;51.970;5.904;2023-10-19T05:25:54;11.90;99.90
64143;DHT22;50437;51.970;5.904;2023-10-19T05:28:25;11.80;99.90
64143;DHT22;50437;51.970;5.904;2023-10-19T05:30:51;11.80;99.90
64143;DHT22;50437;51.970;5.904;2023-10-19T05:33:17;11.70;99.90
64143;DHT22;50437;51.970;5.904;2023-10-19T05:35:47;11.80;99.90
64143;DHT22;50437;51.970;5.904;2023-10-19T05:38:13;11.70;99.90
64143;DHT22;50437;51.970;5.904;2023-10-19T05:40:39;11.70;99.90
64143;DHT22;50437;51.970;5.904;2023-10-19T05:43:08;11.80;99.90
64143;DHT22;50437;51.970;5.904;2023-10-19T05:45:35;11.70;99.90
64143;DHT22;50437;51.970;5.904;2023-10-19T05:48:02;11.80;99.90
64143;DHT22;50437;51.970;5.904;2023-10-19T05:50:40;11.80;99.90
64143;DHT22;50437;51.970;5.904;2023-10-19T05:53:10;11.80;99.90
64143;DHT22;50437;51.970;5.904;2023-10-19T05:55:38;11.70;99.90
64143;DHT22;50437;51.970;5.904;2023-10-19T05:58:06;11.70;99.90
64143;DHT22;50437;51.970;5.904;2023-10-19T06:00:32;11.80;99.90
64143;DHT22;50437;51.970;5.904;2023-10-19T06:02:58;11.80;99.90
64143;DHT22;50437;51.970;5.904;2023-10-19T06:05:26;11.90;99.90
64143;DHT22;50437;51.970;5.904;2023-10-19T06:07:52;11.90;99.90
64143;DHT22;50437;51.970;5.904;2023-10-19T06:10:21;11.90;99.90
64143;DHT22;50437;51.970;5.904;2023-10-19T06:12:48;11.90;99.90
64143;DHT22;50437;51.970;5.904;2023-10-19T06:15:19;11.90;99.90
64143;DHT22;50437;51.970;5.904;2023-10-19T06:17:46;11.90;99.90
64143;DHT22;50437;51.970;5.904;2023-10-19T06:20:14;12.00;99.90
64143;DHT22;50437;51.970;5.904;2023-10-19T06:22:58;12.00;99.90
64143;DHT22;50437;51.970;5.904;2023-10-19T06:25:31;12.00;99.90
64143;DHT22;50437;51.970;5.904;2023-10-19T06:27:57;12.00;99.90
64143;DHT22;50437;51.970;5.904;2023-10-19T06:30:23;12.10;99.90
64143;DHT22;50437;51.970;5.904;2023-10-19T06:33:01;12.10;99.90
64143;DHT22;50437;51.970;5.904;2023-10-19T06:35:31;12.10;99.90
64143;DHT22;50437;51.970;5.904;2023-10-19T06:37:57;12.20;99.90
64143;DHT22;50437;51.970;5.904;2023-10-19T06:40:24;12.20;99.90
64143;DHT22;50437;51.970;5.904;2023-10-19T06:42:54;12.10;99.90
64143;DHT22;50437;51.970;5.904;2023-10-19T06:45:24;12.10;99.90
64143;DHT22;50437;51.970;5.904;2023-10-19T06:47:53;12.30;99.90
64143;DHT22;50437;51.970;5.904;2023-10-19T06:50:21;12.20;99.90
64143;DHT22;50437;51.970;5.904;2023-10-19T06:52:47;12.30;99.90
64143;DHT22;50437;51.970;5.904;2023-10-19T06:55:17;12.30;99.90
64143;DHT22;50437;51.970;5.904;2023-10-19T06:57:53;12.40;99.90
64143;DHT22;50437;51.970;5.904;2023-10-19T07:00:20;12.40;99.90
64143;DHT22;50437;51.970;5.904;2023-10-19T07:02:50;12.50;99.90
64143;DHT22;50437;51.970;5.904;2023-10-19T07:05:19;12.50;99.90
64143;DHT22;50437;51.970;5.904;2023-10-19T07:07:50;12.60;99.90
64143;DHT22;50437;51.970;5.904;2023-10-19T07:10:18;12.50;99.90
64143;DHT22;50437;51.970;5.904;2023-10-19T07:12:54;12.50;99.90
64143;DHT22;50437;51.970;5.904;2023-10-19T07:15:22;12.70;99.90
64143;DHT22;50437;51.970;5.904;2023-10-19T07:17:51;12.70;99.90
64143;DHT22;50437;51.970;5.904;2023-10-19T07:20:20;12.70;99.90
64143;DHT22;50437;51.970;5.904;2023-10-19T07:22:59;12.80;99.90
64143;DHT22;50437;51.970;5.904;2023-10-19T07:25:52;12.80;99.90
64143;DHT22;50437;51.970;5.904;2023-10-19T07:28:25;12.90;99.90
64143;DHT22;50437;51.970;5.904;2023-10-19T07:30:55;12.90;99.90
64143;DHT22;50437;51.970;5.904;2023-10-19T07:33:27;12.90;99.90
64143;DHT22;50437;51.970;5.904;2023-10-19T07:35:53;13.10;99.90
64143;DHT22;50437;51.970;5.904;2023-10-19T07:38:25;13.10;99.90
64143;DHT22;50437;51.970;5.904;2023-10-19T07:40:55;13.10;99.90
64143;DHT22;50437;51.970;5.904;2023-10-19T07:43:21;13.20;99.90
64143;DHT22;50437;51.970;5.904;2023-10-19T07:45:47;13.20;99.90
64143;DHT22;50437;51.970;5.904;2023-10-19T07:48:15;13.20;99.90
64143;DHT22;50437;51.970;5.904;2023-10-19T07:50:40;13.30;99.90
64143;DHT22;50437;51.970;5.904;2023-10-19T07:53:15;13.30;99.90
64143;DHT22;50437;51.970;5.904;2023-10-19T07:55:42;13.30;99.90
64143;DHT22;50437;51.970;5.904;2023-10-19T07:58:09;13.40;99.90
64143;DHT22;50437;51.970;5.904;2023-10-19T08:00:37;13.40;99.90
64143;DHT22;50437;51.970;5.904;2023-10-19T08:03:03;13.60;99.90
64143;DHT22;50437;51.970;5.904;2023-10-19T08:05:30;13.60;99.90
64143;DHT22;50437;51.970;5.904;2023-10-19T08:07:57;13.70;99.90
64143;DHT22;50437;51.970;5.904;2023-10-19T08:10:25;13.70;99.90
64143;DHT22;50437;51.970;5.904;2023-10-19T08:12:53;13.80;99.90
64143;DHT22;50437;51.970;5.904;2023-10-19T08:15:23;13.80;99.90
64143;DHT22;50437;51.970;5.904;2023-10-19T08:17:49;13.80;99.90
64143;DHT22;50437;51.970;5.904;2023-10-19T08:20:19;13.90;99.90
64143;DHT22;50437;51.970;5.904;2023-10-19T08:23:00;13.90;99.90
64143;DHT22;50437;51.970;5.904;2023-10-19T08:25:27;13.90;99.90
64143;DHT22;50437;51.970;5.904;2023-10-19T08:27:56;14.00;99.90
64143;DHT22;50437;51.970;5.904;2023-10-19T08:30:25;14.00;99.90
64143;DHT22;50437;51.970;5.904;2023-10-19T08:32:51;14.10;99.90
64143;DHT22;50437;51.970;5.904;2023-10-19T08:35:18;14.10;99.90
64143;DHT22;50437;51.970;5.904;2023-10-19T08:37:46;14.10;99.90
64143;DHT22;50437;51.970;5.904;2023-10-19T08:40:13;14.10;99.90
64143;DHT22;50437;51.970;5.904;2023-10-19T08:42:44;14.20;99.90
64143;DHT22;50437;51.970;5.904;2023-10-19T08:45:14;14.20;99.90
64143;DHT22;50437;51.970;5.904;2023-10-19T08:47:43;14.20;99.90
64143;DHT22;50437;51.970;5.904;2023-10-19T08:50:13;14.30;99.90
64143;DHT22;50437;51.970;5.904;2023-10-19T08:52:41;14.30;99.90
64143;DHT22;50437;51.970;5.904;2023-10-19T08:55:08;14.40;99.90
64143;DHT22;50437;51.970;5.904;2023-10-19T08:57:39;14.50;99.90
64143;DHT22;50437;51.970;5.904;2023-10-19T09:00:05;14.50;99.90
64143;DHT22;50437;51.970;5.904;2023-10-19T09:02:32;14.60;99.90
64143;DHT22;50437;51.970;5.904;2023-10-19T09:04:59;14.60;99.90
64143;DHT22;50437;51.970;5.904;2023-10-19T09:07:42;14.60;99.90
64143;DHT22;50437;51.970;5.904;2023-10-19T09:10:17;14.80;99.90
64143;DHT22;50437;51.970;5.904;2023-10-19T09:12:43;14.90;99.90
64143;DHT22;50437;51.970;5.904;2023-10-19T09:15:20;15.00;99.90
64143;DHT22;50437;51.970;5.904;2023-10-19T09:17:47;15.00;99.90
64143;DHT22;50437;51.970;5.904;2023-10-19T09:20:22;14.90;99.90
64143;DHT22;50437;51.970;5.904;2023-10-19T09:22:55;15.00;99.90
64143;DHT22;50437;51.970;5.904;2023-10-19T09:25:22;15.00;99.90
64143;DHT22;50437;51.970;5.904;2023-10-19T09:27:48;15.00;99.90
64143;DHT22;50437;51.970;5.904;2023-10-19T09:30:15;14.90;99.90
64143;DHT22;50437;51.970;5.904;2023-10-19T09:32:47;15.00;99.90
64143;DHT22;50437;51.970;5.904;2023-10-19T09:35:14;15.00;99.90
64143;DHT22;50437;51.970;5.904;2023-10-19T09:37:44;15.00;99.90
64143;DHT22;50437;51.970;5.904;2023-10-19T09:40:10;15.20;99.90
64143;DHT22;50437;51.970;5.904;2023-10-19T09:42:42;15.80;99.90
64143;DHT22;50437;51.970;5.904;2023-10-19T09:45:12;16.00;99.90
64143;DHT22;50437;51.970;5.904;2023-10-19T09:47:39;16.00;99.90
64143;DHT22;50437;51.970;5.904;2023-10-19T09:50:09;16.00;99.90
64143;DHT22;50437;51.970;5.904;2023-10-19T09:52:40;16.00;99.90
64143;DHT22;50437;51.970;5.904;2023-10-19T09:55:12;15.90;99.90
64143;DHT22;50437;51.970;5.904;2023-10-19T09:57:56;15.80;99.90
64143;DHT22;50437;51.970;5.904;2023-10-19T10:00:25;16.10;99.90
64143;DHT22;50437;51.970;5.904;2023-10-19T10:02:57;16.80;99.90
64143;DHT22;50437;51.970;5.904;2023-10-19T10:10:47;18.50;99.90
64143;DHT22;50437;51.970;5.904;2023-10-19T10:15:58;18.90;99.90
64143;DHT22;50437;51.970;5.904;2023-10-19T10:18:26;19.80;99.90
64143;DHT22;50437;51.970;5.904;2023-10-19T10:21:10;19.80;99.90
64143;DHT22;50437;51.970;5.904;2023-10-19T10:23:44;19.50;99.90
64143;DHT22;50437;51.970;5.904;2023-10-19T10:26:11;18.90;99.90
64143;DHT22;50437;51.970;5.904;2023-10-19T10:28:38;18.50;99.90
64143;DHT22;50437;51.970;5.904;2023-10-19T10:31:14;18.10;99.90
64143;DHT22;50437;51.970;5.904;2023-10-19T10:33:45;17.90;99.90
64143;DHT22;50437;51.970;5.904;2023-10-19T10:36:12;17.80;99.90
64143;DHT22;50437;51.970;5.904;2023-10-19T10:38:39;17.70;99.90
64143;DHT22;50437;51.970;5.904;2023-10-19T10:41:05;17.80;99.90
64143;DHT22;50437;51.970;5.904;2023-10-19T10:43:57;17.80;99.90
64143;DHT22;50437;51.970;5.904;2023-10-19T10:46:22;17.70;99.90
64143;DHT22;50437;51.970;5.904;2023-10-19T10:48:50;17.70;99.90
64143;DHT22;50437;51.970;5.904;2023-10-19T10:51:18;17.60;99.90
64143;DHT22;50437;51.970;5.904;2023-10-19T10:53:46;17.60;99.90
64143;DHT22;50437;51.970;5.904;2023-10-19T10:56:16;18.00;99.90
64143;DHT22;50437;51.970;5.904;2023-10-19T10:58:42;18.20;99.90
64143;DHT22;50437;51.970;5.904;2023-10-19T11:01:08;18.30;99.90
64143;DHT22;50437;51.970;5.904;2023-10-19T11:03:42;18.20;99.90
64143;DHT22;50437;51.970;5.904;2023-10-19T11:06:11;18.00;99.90
64143;DHT22;50437;51.970;5.904;2023-10-19T11:08:37;17.90;99.90
64143;DHT22;50437;51.970;5.904;2023-10-19T11:11:05;17.90;99.90
64143;DHT22;50437;51.970;5.904;2023-10-19T11:13:33;18.10;99.90
64143;DHT22;50437;51.970;5.904;2023-10-19T11:16:02;17.90;99.90
64143;DHT22;50437;51.970;5.904;2023-10-19T11:18:29;18.00;99.90
64143;DHT22;50437;51.970;5.904;2023-10-19T11:20:56;18.00;99.90
64143;DHT22;50437;51.970;5.904;2023-10-19T11:26:03;18.60;99.90
64143;DHT22;50437;51.970;5.904;2023-10-19T11:28:31;19.00;99.90
64143;DHT22;50437;51.970;5.904;2023-10-19T11:31:18;19.40;99.90
64143;DHT22;50437;51.970;5.904;2023-10-19T11:33:50;19.40;99.90
64143;DHT22;50437;51.970;5.904;2023-10-19T11:36:17;19.20;99.90
64143;DHT22;50437;51.970;5.904;2023-10-19T11:38:46;19.00;99.90
64143;DHT22;50437;51.970;5.904;2023-10-19T11:41:13;18.80;99.90
64143;DHT22;50437;51.970;5.904;2023-10-19T11:43:40;18.80;99.90
64143;DHT22;50437;51.970;5.904;2023-10-19T11:46:06;18.70;99.90
64143;DHT22;50437;51.970;5.904;2023-10-19T11:48:33;18.60;99.90
64143;DHT22;50437;51.970;5.904;2023-10-19T11:51:00;18.70;99.90
64143;DHT22;50437;51.970;5.904;2023-10-19T11:53:38;18.90;99.90
64143;DHT22;50437;51.970;5.904;2023-10-19T11:56:05;18.70;99.90
64143;DHT22;50437;51.970;5.904;2023-10-19T11:58:35;18.60;99.90
64143;DHT22;50437;51.970;5.904;2023-10-19T12:01:12;18.50;99.90
64143;DHT22;50437;51.970;5.904;2023-10-19T12:03:42;18.20;99.90
64143;DHT22;50437;51.970;5.904;2023-10-19T12:06:11;18.40;99.90
64143;DHT22;50437;51.970;5.904;2023-10-19T12:08:38;18.70;99.90
64143;DHT22;50437;51.970;5.904;2023-10-19T12:11:05;18.70;99.90
64143;DHT22;50437;51.970;5.904;2023-10-19T12:13:41;18.60;99.90
64143;DHT22;50437;51.970;5.904;2023-10-19T12:16:10;18.40;99.90
64143;DHT22;50437;51.970;5.904;2023-10-19T12:18:38;18.20;99.90
64143;DHT22;50437;51.970;5.904;2023-10-19T12:21:04;17.90;99.90
64143;DHT22;50437;51.970;5.904;2023-10-19T12:23:33;17.80;99.90
64143;DHT22;50437;51.970;5.904;2023-10-19T12:26:04;17.70;99.90
64143;DHT22;50437;51.970;5.904;2023-10-19T12:28:40;17.60;99.90
64143;DHT22;50437;51.970;5.904;2023-10-19T12:31:07;17.60;99.90
64143;DHT22;50437;51.970;5.904;2023-10-19T12:33:39;17.60;99.90
64143;DHT22;50437;51.970;5.904;2023-10-19T12:36:07;17.70;99.90
64143;DHT22;50437;51.970;5.904;2023-10-19T12:38:52;17.60;99.90
64143;DHT22;50437;51.970;5.904;2023-10-19T12:41:19;17.60;99.90
64143;DHT22;50437;51.970;5.904;2023-10-19T12:43:46;17.60;99.90
64143;DHT22;50437;51.970;5.904;2023-10-19T12:46:15;17.60;99.90
64143;DHT22;50437;51.970;5.904;2023-10-19T12:48:42;17.60;99.90
64143;DHT22;50437;51.970;5.904;2023-10-19T12:51:08;17.60;99.90
64143;DHT22;50437;51.970;5.904;2023-10-19T12:53:37;17.50;99.90
64143;DHT22;50437;51.970;5.904;2023-10-19T12:56:05;17.40;99.90
64143;DHT22;50437;51.970;5.904;2023-10-19T12:58:33;17.40;99.90
64143;DHT22;50437;51.970;5.904;2023-10-19T13:01:00;17.20;99.90
64143;DHT22;50437;51.970;5.904;2023-10-19T13:03:26;17.30;99.90
64143;DHT22;50437;51.970;5.904;2023-10-19T13:05:58;17.20;99.90
64143;DHT22;50437;51.970;5.904;2023-10-19T13:08:24;17.20;99.90
64143;DHT22;50437;51.970;5.904;2023-10-19T13:10:53;17.20;99.90
64143;DHT22;50437;51.970;5.904;2023-10-19T13:13:22;17.20;99.90
64143;DHT22;50437;51.970;5.904;2023-10-19T13:15:52;17.20;99.90
64143;DHT22;50437;51.970;5.904;2023-10-19T13:18:19;17.10;99.90
64143;DHT22;50437;51.970;5.904;2023-10-19T13:20:47;17.00;99.90
64143;DHT22;50437;51.970;5.904;2023-10-19T13:23:18;17.00;99.90
64143;DHT22;50437;51.970;5.904;2023-10-19T13:25:48;17.00;99.90
64143;DHT22;50437;51.970;5.904;2023-10-19T13:28:23;17.00;99.90
64143;DHT22;50437;51.970;5.904;2023-10-19T13:30:53;17.00;99.90
64143;DHT22;50437;51.970;5.904;2023-10-19T13:33:20;16.90;99.90
64143;DHT22;50437;51.970;5.904;2023-10-19T13:35:50;16.80;99.90
64143;DHT22;50437;51.970;5.904;2023-10-19T13:38:16;16.80;99.90
64143;DHT22;50437;51.970;5.904;2023-10-19T13:40:43;16.70;99.90
64143;DHT22;50437;51.970;5.904;2023-10-19T13:43:11;16.70;99.90
64143;DHT22;50437;51.970;5.904;2023-10-19T13:45:39;16.70;99.90
64143;DHT22;50437;51.970;5.904;2023-10-19T13:48:09;16.80;99.90
64143;DHT22;50437;51.970;5.904;2023-10-19T13:50:40;16.80;99.90
64143;DHT22;50437;51.970;5.904;2023-10-19T13:53:06;16.80;99.90
64143;DHT22;50437;51.970;5.904;2023-10-19T13:55:32;16.90;99.90
64143;DHT22;50437;51.970;5.904;2023-10-19T13:58:03;17.00;99.90
64143;DHT22;50437;51.970;5.904;2023-10-19T14:00:29;17.00;99.90
64143;DHT22;50437;51.970;5.904;2023-10-19T14:03:06;17.10;99.90
64143;DHT22;50437;51.970;5.904;2023-10-19T14:05:39;17.10;99.90
64143;DHT22;50437;51.970;5.904;2023-10-19T14:08:08;17.10;99.90
64143;DHT22;50437;51.970;5.904;2023-10-19T14:10:34;17.10;99.90
64143;DHT22;50437;51.970;5.904;2023-10-19T14:13:01;17.10;99.90
64143;DHT22;50437;51.970;5.904;2023-10-19T14:15:27;17.00;99.90
64143;DHT22;50437;51.970;5.904;2023-10-19T14:17:55;17.20;99.90
64143;DHT22;50437;51.970;5.904;2023-10-19T14:20:22;17.00;99.90
64143;DHT22;50437;51.970;5.904;2023-10-19T14:22:49;16.90;99.90
64143;DHT22;50437;51.970;5.904;2023-10-19T14:25:15;16.80;99.90
64143;DHT22;50437;51.970;5.904;2023-10-19T14:27:42;16.80;99.90
64143;DHT22;50437;51.970;5.904;2023-10-19T14:30:12;16.70;99.90
64143;DHT22;50437;51.970;5.904;2023-10-19T14:32:39;16.70;99.90
64143;DHT22;50437;51.970;5.904;2023-10-19T14:35:05;16.70;99.90
64143;DHT22;50437;51.970;5.904;2023-10-19T14:37:40;16.60;99.90
64143;DHT22;50437;51.970;5.904;2023-10-19T14:40:07;16.50;99.90
64143;DHT22;50437;51.970;5.904;2023-10-19T14:42:38;16.40;99.90
64143;DHT22;50437;51.970;5.904;2023-10-19T14:45:05;16.40;99.90
64143;DHT22;50437;51.970;5.904;2023-10-19T14:47:38;16.40;99.90
64143;DHT22;50437;51.970;5.904;2023-10-19T14:50:15;16.50;99.90
64143;DHT22;50437;51.970;5.904;2023-10-19T14:52:44;16.40;99.90
64143;DHT22;50437;51.970;5.904;2023-10-19T14:55:10;16.50;99.90
64143;DHT22;50437;51.970;5.904;2023-10-19T14:57:42;16.50;99.90
64143;DHT22;50437;51.970;5.904;2023-10-19T15:00:18;16.50;99.90
64143;DHT22;50437;51.970;5.904;2023-10-19T15:02:51;16.50;99.90
64143;DHT22;50437;51.970;5.904;2023-10-19T15:05:21;16.50;99.90
64143;DHT22;50437;51.970;5.904;2023-10-19T15:07:48;16.40;99.90
64143;DHT22;50437;51.970;5.904;2023-10-19T15:10:24;16.40;99.90
64143;DHT22;50437;51.970;5.904;2023-10-19T15:12:59;16.30;99.90
64143;DHT22;50437;51.970;5.904;2023-10-19T15:15:28;16.30;99.90
64143;DHT22;50437;51.970;5.904;2023-10-19T15:17:58;16.30;99.90
64143;DHT22;50437;51.970;5.904;2023-10-19T15:20:26;16.20;99.90
64143;DHT22;50437;51.970;5.904;2023-10-19T15:22:52;16.20;99.90
64143;DHT22;50437;51.970;5.904;2023-10-19T15:25:21;16.10;99.90
64143;DHT22;50437;51.970;5.904;2023-10-19T15:27:51;16.00;99.90
64143;DHT22;50437;51.970;5.904;2023-10-19T15:30:18;16.00;99.90
64143;DHT22;50437;51.970;5.904;2023-10-19T15:32:49;16.00;99.90
64143;DHT22;50437;51.970;5.904;2023-10-19T15:35:16;16.00;99.90
64143;DHT22;50437;51.970;5.904;2023-10-19T15:37:52;16.00;99.90
64143;DHT22;50437;51.970;5.904;2023-10-19T15:40:21;16.10;99.90
64143;DHT22;50437;51.970;5.904;2023-10-19T15:42:47;16.10;99.90
64143;DHT22;50437;51.970;5.904;2023-10-19T15:45:14;16.10;99.90
64143;DHT22;50437;51.970;5.904;2023-10-19T15:47:44;16.10;99.90
64143;DHT22;50437;51.970;5.904;2023-10-19T15:50:10;16.10;99.90
64143;DHT22;50437;51.970;5.904;2023-10-19T15:52:38;16.20;99.90
64143;DHT22;50437;51.970;5.904;2023-10-19T15:55:10;16.20;99.90
64143;DHT22;50437;51.970;5.904;2023-10-19T15:57:37;16.10;99.90